| time (UTC) | temp C | wind direction | speed KPH | gust KPH | rain 1hr cm | rain 24hr cm | rain mn cm | humidity % | barometer mb |
| 20260502130555 | 6 | 289 | 4.8 | 14.5 | 0.00 | 0.00 | 0.00 | 46 | 1024.5 |
| 20260502123544 | 2 | 268 | 0.0 | 4.8 | 0.00 | 0.00 | 0.00 | 54 | 1024.4 |
| 20260502123044 | 2 | 268 | 1.6 | 6.4 | 0.00 | 0.00 | 0.00 | 54 | 1024.4 |
| 20260502122543 | 2 | 261 | 1.6 | 6.4 | 0.00 | 0.00 | 0.00 | 55 | 1024.4 |
| 20260502122042 | 2 | 280 | 1.6 | 6.4 | 0.00 | 0.00 | 0.00 | 54 | 1024.5 |
| 20260502121542 | 2 | 293 | 0.0 | 6.4 | 0.00 | 0.00 | 0.00 | 53 | 1024.3 |
| 20260502121044 | 2 | 293 | 3.2 | 8.0 | 0.00 | 0.00 | 0.00 | 53 | 1024.4 |
| 20260502120541 | 2 | 293 | 1.6 | 9.7 | 0.00 | 0.00 | 0.00 | 56 | 1024.4 |
| 20260502115543 | 2 | 287 | 4.8 | 8.0 | 0.00 | 0.00 | 0.00 | 56 | 1024.3 |
| 20260502115042 | 2 | 289 | 1.6 | 11.3 | 0.00 | 0.00 | 0.00 | 57 | 1024.2 |
| 20260502114541 | 1 | 272 | 1.6 | 11.3 | 0.00 | 0.00 | 0.00 | 59 | 1024.3 |
| 20260502114040 | 1 | 277 | 3.2 | 8.0 | 0.00 | 0.00 | 0.00 | 61 | 1024.3 |
| 20260502113540 | 1 | 308 | 1.6 | 6.4 | 0.00 | 0.00 | 0.00 | 63 | 1024.3 |
| 20260502113049 | 1 | 308 | 0.0 | 0.0 | 0.00 | 0.00 | 0.00 | 60 | 1024.3 |
| 20260502112538 | 1 | 308 | 0.0 | 3.2 | 0.00 | 0.00 | 0.00 | 60 | 1024.4 |
| 20260502112041 | 1 | 308 | 0.0 | 6.4 | 0.00 | 0.00 | 0.00 | 60 | 1024.4 |
| 20260502111540 | 1 | 308 | 0.0 | 6.4 | 0.00 | 0.00 | 0.00 | 59 | 1024.4 |
| 20260502111037 | 2 | 293 | 0.0 | 8.0 | 0.00 | 0.00 | 0.00 | 58 | 1024.3 |
| 20260502110539 | 2 | 313 | 3.2 | 8.0 | 0.00 | 0.00 | 0.00 | 58 | 1024.3 |
| 20260502110037 | 2 | 293 | 1.6 | 8.0 | 0.00 | 0.00 | 0.00 | 57 | 1024.4 |
| 20260502105536 | 2 | 239 | 1.6 | 4.8 | 0.00 | 0.00 | 0.00 | 55 | 1024.5 |
| 20260502105037 | 1 | 239 | 0.0 | 6.4 | 0.00 | 0.00 | 0.00 | 57 | 1024.6 |
| 20260502104535 | 1 | 239 | 1.6 | 6.4 | 0.00 | 0.00 | 0.00 | 59 | 1024.6 |
| 20260502104034 | 2 | 224 | 3.2 | 9.7 | 0.00 | 0.00 | 0.00 | 58 | 1024.5 |
| 20260502103535 | 2 | 237 | 4.8 | 9.7 | 0.00 | 0.00 | 0.00 | 58 | 1024.6 |
| 20260502103057 | 2 | 287 | 0.0 | 8.0 | 0.00 | 0.00 | 0.00 | 58 | 1024.4 |
| 20260502102533 | 2 | 287 | 3.2 | 11.3 | 0.00 | 0.00 | 0.00 | 58 | 1024.5 |
| 20260502102032 | 2 | 284 | 1.6 | 11.3 | 0.00 | 0.00 | 0.00 | 60 | 1024.5 |
| 20260502101546 | 2 | 246 | 0.0 | 4.8 | 0.00 | 0.00 | 0.00 | 57 | 1024.4 |
| 20260502101032 | 2 | 246 | 1.6 | 6.4 | 0.00 | 0.00 | 0.00 | 59 | 1024.6 |
| 20260502100531 | 2 | 247 | 0.0 | 6.4 | 0.00 | 0.00 | 0.00 | 57 | 1024.6 |
| 20260502091520 | 5 | 112 | 0.0 | 3.2 | 0.00 | 0.00 | 0.00 | 49 | 1024.3 |
| 20260502091020 | 5 | 344 | 0.0 | 3.2 | 0.00 | 0.00 | 0.00 | 47 | 1024.2 |
| 20260502090518 | 5 | 339 | 0.0 | 4.8 | 0.00 | 0.00 | 0.00 | 46 | 1024.2 |
| 20260502071500 | 8 | 234 | 25.7 | 38.6 | 0.00 | 0.00 | 0.00 | 33 | 1024.9 |
| 20260502071100 | 8 | 229 | 20.9 | 35.4 | 0.00 | 0.00 | 0.00 | 33 | 1025.0 |
| 20260502070559 | 8 | 230 | 24.1 | 35.4 | 0.00 | 0.00 | 0.00 | 34 | 1024.9 |
| 20260502070104 | 8 | 247 | 22.5 | 35.4 | 0.00 | 0.00 | 0.00 | 34 | 1025.0 |
| 20260502065558 | 8 | 223 | 20.9 | 30.6 | 0.00 | 0.00 | 0.00 | 33 | 1025.1 |
| 20260502065058 | 8 | 220 | 19.3 | 35.4 | 0.00 | 0.00 | 0.00 | 33 | 1025.0 |
| 20260502064557 | 9 | 228 | 27.4 | 35.4 | 0.00 | 0.00 | 0.00 | 33 | 1025.0 |
| 20260502064055 | 9 | 231 | 20.9 | 32.2 | 0.00 | 0.00 | 0.00 | 33 | 1025.1 |
| 20260502063555 | 9 | 201 | 20.9 | 32.2 | 0.00 | 0.00 | 0.00 | 33 | 1025.2 |
| 20260502063106 | 8 | 220 | 16.1 | 30.6 | 0.00 | 0.00 | 0.00 | 34 | 1025.2 |
| 20260502062552 | 8 | 216 | 19.3 | 30.6 | 0.00 | 0.00 | 0.00 | 34 | 1025.2 |
| 20260502062052 | 8 | 220 | 17.7 | 25.7 | 0.00 | 0.00 | 0.00 | 34 | 1025.2 |
| 20260502061551 | 8 | 192 | 9.7 | 24.1 | 0.00 | 0.00 | 0.00 | 35 | 1025.3 |
| 20260502061050 | 8 | 230 | 16.1 | 27.4 | 0.00 | 0.00 | 0.00 | 34 | 1025.3 |
| 20260502060551 | 8 | 245 | 14.5 | 27.4 | 0.00 | 0.00 | 0.00 | 34 | 1025.4 |
| 20260502060048 | 8 | 210 | 16.1 | 27.4 | 0.00 | 0.00 | 0.00 | 34 | 1025.4 |
| 20260502055549 | 8 | 215 | 19.3 | 27.4 | 0.00 | 0.00 | 0.00 | 34 | 1025.4 |
| 20260502055148 | 8 | 232 | 14.5 | 27.4 | 0.00 | 0.00 | 0.00 | 34 | 1025.4 |
| 20260502054555 | 8 | 208 | 16.1 | 27.4 | 0.00 | 0.00 | 0.00 | 34 | 1025.4 |
| 20260502054047 | 8 | 216 | 14.5 | 25.7 | 0.00 | 0.00 | 0.00 | 34 | 1025.4 |
| 20260502053547 | 8 | 220 | 8.0 | 22.5 | 0.00 | 0.00 | 0.00 | 35 | 1025.5 |
| 20260502053049 | 8 | 217 | 12.9 | 22.5 | 0.00 | 0.00 | 0.00 | 35 | 1025.4 |
| 20260502052547 | 8 | 208 | 9.7 | 20.9 | 0.00 | 0.00 | 0.00 | 36 | 1025.3 |
| 20260502052048 | 8 | 225 | 12.9 | 24.1 | 0.00 | 0.00 | 0.00 | 35 | 1025.4 |
| 20260502051548 | 8 | 189 | 9.7 | 22.5 | 0.00 | 0.00 | 0.00 | 35 | 1025.3 |
| 20260502051046 | 8 | 209 | 11.3 | 30.6 | 0.00 | 0.00 | 0.00 | 35 | 1025.3 |
| 20260502050546 | 9 | 224 | 17.7 | 32.2 | 0.00 | 0.00 | 0.00 | 34 | 1025.3 |
| 20260502050048 | 9 | 206 | 17.7 | 32.2 | 0.00 | 0.00 | 0.00 | 34 | 1025.4 |
| 20260502045550 | 9 | 212 | 12.9 | 24.1 | 0.00 | 0.00 | 0.00 | 35 | 1025.4 |
| 20260502045047 | 9 | 234 | 6.4 | 17.7 | 0.00 | 0.00 | 0.00 | 34 | 1025.4 |
| 20260502044546 | 9 | 212 | 6.4 | 29.0 | 0.00 | 0.00 | 0.00 | 34 | 1025.4 |
| 20260502044045 | 9 | 220 | 19.3 | 35.4 | 0.00 | 0.00 | 0.00 | 34 | 1025.4 |
| 20260502043545 | 10 | 201 | 14.5 | 35.4 | 0.00 | 0.00 | 0.00 | 33 | 1025.4 |
| 20260502043056 | 9 | 224 | 14.5 | 27.4 | 0.00 | 0.00 | 0.00 | 34 | 1025.4 |
| 20260502042545 | 9 | 214 | 9.7 | 17.7 | 0.00 | 0.00 | 0.00 | 34 | 1025.4 |
| 20260502042045 | 9 | 210 | 12.9 | 27.4 | 0.00 | 0.00 | 0.00 | 34 | 1025.4 |
| 20260502041545 | 9 | 216 | 17.7 | 27.4 | 0.00 | 0.00 | 0.00 | 34 | 1025.4 |
| 20260502041044 | 9 | 219 | 16.1 | 27.4 | 0.00 | 0.00 | 0.00 | 34 | 1025.4 |
| 20260502040544 | 10 | 229 | 9.7 | 22.5 | 0.00 | 0.00 | 0.00 | 34 | 1025.4 |
| 20260502040050 | 10 | 199 | 14.5 | 24.1 | 0.00 | 0.00 | 0.00 | 35 | 1025.4 |
| 20260502035544 | 10 | 222 | 9.7 | 24.1 | 0.00 | 0.00 | 0.00 | 34 | 1025.4 |
| 20260502035044 | 10 | 214 | 14.5 | 24.1 | 0.00 | 0.00 | 0.00 | 35 | 1025.2 |
| 20260502034544 | 9 | 235 | 11.3 | 22.5 | 0.00 | 0.00 | 0.00 | 36 | 1025.2 |
| 20260502034044 | 8 | 214 | 9.7 | 22.5 | 0.00 | 0.00 | 0.00 | 39 | 1025.1 |
| 20260502033543 | 8 | 249 | 0.0 | 12.9 | 0.00 | 0.00 | 0.00 | 42 | 1025.2 |
| 20260502033044 | 8 | 256 | 6.4 | 12.9 | 0.00 | 0.00 | 0.00 | 43 | 1025.1 |
| 20260502032544 | 8 | 260 | 3.2 | 12.9 | 0.00 | 0.00 | 0.00 | 43 | 1025.1 |
| 20260502032043 | 8 | 220 | 3.2 | 11.3 | 0.00 | 0.00 | 0.00 | 44 | 1025.1 |
| 20260502031543 | 8 | 205 | 6.4 | 12.9 | 0.00 | 0.00 | 0.00 | 42 | 1025.0 |
| 20260502031043 | 8 | 198 | 6.4 | 17.7 | 0.00 | 0.00 | 0.00 | 41 | 1025.0 |
| 20260502030543 | 8 | 219 | 12.9 | 17.7 | 0.00 | 0.00 | 0.00 | 39 | 1025.0 |
| 20260502030047 | 8 | 219 | 11.3 | 19.3 | 0.00 | 0.00 | 0.00 | 41 | 1025.0 |
| 20260502025542 | 8 | 216 | 12.9 | 17.7 | 0.00 | 0.00 | 0.00 | 41 | 1024.9 |
| 20260502025042 | 8 | 226 | 12.9 | 17.7 | 0.00 | 0.00 | 0.00 | 42 | 1024.8 |
| 20260502024543 | 8 | 216 | 12.9 | 17.7 | 0.00 | 0.00 | 0.00 | 42 | 1024.8 |
| 20260502024042 | 8 | 237 | 12.9 | 17.7 | 0.00 | 0.00 | 0.00 | 41 | 1024.7 |
| 20260502023542 | 8 | 220 | 12.9 | 17.7 | 0.00 | 0.00 | 0.00 | 40 | 1024.6 |
| 20260502023042 | 9 | 220 | 12.9 | 17.7 | 0.00 | 0.00 | 0.00 | 40 | 1024.6 |
| 20260502022541 | 9 | 232 | 12.9 | 17.7 | 0.00 | 0.00 | 0.00 | 39 | 1024.6 |
| 20260502022041 | 9 | 238 | 12.9 | 17.7 | 0.00 | 0.00 | 0.00 | 38 | 1024.5 |
| 20260502021542 | 9 | 252 | 8.0 | 12.9 | 0.00 | 0.00 | 0.00 | 41 | 1024.3 |
| 20260502021041 | 10 | 253 | 6.4 | 11.3 | 0.00 | 0.00 | 0.00 | 38 | 1024.4 |
| 20260502020543 | 11 | 214 | 4.8 | 11.3 | 0.00 | 0.00 | 0.00 | 38 | 1024.3 |
| 20260502020041 | 11 | 222 | 6.4 | 11.3 | 0.00 | 0.00 | 0.00 | 35 | 1024.3 |
| 20260502015544 | 13 | 224 | 3.2 | 4.8 | 0.00 | 0.00 | 0.00 | 35 | 1024.3 |
| 20260502015040 | 13 | 114 | 0.0 | 6.4 | 0.00 | 0.00 | 0.00 | 26 | 1024.2 |
| 20260502014540 | 14 | 114 | 3.2 | 6.4 | 0.00 | 0.00 | 0.00 | 25 | 1024.2 |
| 20260502014040 | 14 | 109 | 4.8 | 6.4 | 0.00 | 0.00 | 0.00 | 24 | 1024.2 |
| 20260502013539 | 14 | 108 | 3.2 | 6.4 | 0.00 | 0.00 | 0.00 | 24 | 1024.1 |
| 20260502013039 | 15 | 108 | 3.2 | 6.4 | 0.00 | 0.00 | 0.00 | 25 | 1024.1 |
| 20260502012542 | 15 | 116 | 1.6 | 9.7 | 0.00 | 0.00 | 0.00 | 24 | 1024.0 |
| 20260502012038 | 15 | 116 | 4.8 | 9.7 | 0.00 | 0.00 | 0.00 | 24 | 1024.0 |
| 20260502011538 | 15 | 95 | 1.6 | 8.0 | 0.00 | 0.00 | 0.00 | 24 | 1024.0 |
| 20260502011042 | 15 | 106 | 3.2 | 9.7 | 0.00 | 0.00 | 0.00 | 21 | 1024.0 |
| 20260502010537 | 15 | 49 | 4.8 | 12.9 | 0.00 | 0.00 | 0.00 | 21 | 1024.1 |
| 20260502010042 | 15 | 110 | 6.4 | 12.9 | 0.00 | 0.00 | 0.00 | 23 | 1024.1 |
| 20260502005537 | 15 | 94 | 8.0 | 12.9 | 0.00 | 0.00 | 0.00 | 21 | 1024.1 |
| 20260502005037 | 15 | 89 | 4.8 | 11.3 | 0.00 | 0.00 | 0.00 | 21 | 1024.2 |
| 20260502004537 | 15 | 106 | 1.6 | 11.3 | 0.00 | 0.00 | 0.00 | 23 | 1024.1 |
| 20260502004037 | 15 | 95 | 1.6 | 12.9 | 0.00 | 0.00 | 0.00 | 21 | 1024.2 |
| 20260502003535 | 15 | 95 | 6.4 | 19.3 | 0.00 | 0.00 | 0.00 | 20 | 1024.2 |
| 20260502003035 | 15 | 118 | 9.7 | 16.1 | 0.00 | 0.00 | 0.00 | 23 | 1024.2 |
| 20260502002535 | 15 | 95 | 9.7 | 16.1 | 0.00 | 0.00 | 0.00 | 20 | 1024.1 |
| 20260502002036 | 15 | 116 | 6.4 | 16.1 | 0.00 | 0.00 | 0.00 | 22 | 1024.1 |
| 20260502001534 | 15 | 104 | 3.2 | 12.9 | 0.00 | 0.00 | 0.00 | 20 | 1024.2 |
| 20260502001034 | 15 | 89 | 8.0 | 14.5 | 0.00 | 0.00 | 0.00 | 21 | 1024.3 |
| 20260502000533 | 15 | 64 | 9.7 | 16.1 | 0.00 | 0.00 | 0.00 | 21 | 1024.2 |
| 20260502000033 | 15 | 41 | 8.0 | 16.1 | 0.00 | 0.00 | 0.00 | 20 | 1024.3 |
| 20260501235533 | 15 | 334 | 3.2 | 17.7 | 0.00 | 0.00 | 0.00 | 20 | 1024.3 |
| 20260501235032 | 15 | 52 | 9.7 | 17.7 | 0.00 | 0.00 | 0.00 | 21 | 1024.3 |
| 20260501234535 | 15 | 65 | 3.2 | 16.1 | 0.00 | 0.00 | 0.00 | 21 | 1024.3 |
| 20260501234031 | 15 | 81 | 1.6 | 14.5 | 0.00 | 0.00 | 0.00 | 20 | 1024.4 |
| 20260501233530 | 15 | 94 | 9.7 | 19.3 | 0.00 | 0.00 | 0.00 | 22 | 1024.3 |
| 20260501233033 | 15 | 102 | 11.3 | 17.7 | 0.00 | 0.00 | 0.00 | 21 | 1024.3 |
| 20260501232530 | 16 | 43 | 8.0 | 16.1 | 0.00 | 0.00 | 0.00 | 20 | 1024.5 |
| 20260501232030 | 16 | 290 | 1.6 | 16.1 | 0.00 | 0.00 | 0.00 | 22 | 1024.5 |
| 20260501231529 | 16 | 241 | 6.4 | 16.1 | 0.00 | 0.00 | 0.00 | 21 | 1024.6 |
| 20260501231029 | 16 | 40 | 1.6 | 6.4 | 0.00 | 0.00 | 0.00 | 23 | 1024.7 |
| 20260501230529 | 16 | 310 | 0.0 | 12.9 | 0.00 | 0.00 | 0.00 | 21 | 1024.7 |
| 20260501230033 | 16 | 245 | 8.0 | 12.9 | 0.00 | 0.00 | 0.00 | 21 | 1024.7 |
| 20260501225527 | 16 | 198 | 3.2 | 8.0 | 0.00 | 0.00 | 0.00 | 19 | 1024.7 |
| 20260501225026 | 16 | 113 | 1.6 | 9.7 | 0.00 | 0.00 | 0.00 | 20 | 1024.7 |
| 20260501224526 | 15 | 217 | 0.0 | 14.5 | 0.00 | 0.00 | 0.00 | 22 | 1024.7 |
| 20260501224028 | 15 | 189 | 8.0 | 14.5 | 0.00 | 0.00 | 0.00 | 21 | 1024.9 |
| 20260501223524 | 15 | 302 | 4.8 | 17.7 | 0.00 | 0.00 | 0.00 | 21 | 1024.8 |
| 20260501223034 | 15 | 337 | 8.0 | 17.7 | 0.00 | 0.00 | 0.00 | 23 | 1024.8 |
| 20260501222522 | 15 | 15 | 3.2 | 12.9 | 0.00 | 0.00 | 0.00 | 23 | 1024.9 |
| 20260501222021 | 15 | 61 | 6.4 | 11.3 | 0.00 | 0.00 | 0.00 | 21 | 1025.0 |
| 20260501221524 | 15 | 106 | 6.4 | 20.9 | 0.00 | 0.00 | 0.00 | 22 | 1025.0 |
| 20260501221021 | 15 | 66 | 6.4 | 20.9 | 0.00 | 0.00 | 0.00 | 24 | 1025.0 |
| 20260501220521 | 15 | 339 | 9.7 | 16.1 | 0.00 | 0.00 | 0.00 | 21 | 1025.0 |
| 20260501220020 | 15 | 99 | 9.7 | 16.1 | 0.00 | 0.00 | 0.00 | 23 | 1025.1 |
| 20260501215520 | 15 | 142 | 4.8 | 17.7 | 0.00 | 0.00 | 0.00 | 22 | 1025.1 |
| 20260501215020 | 15 | 56 | 6.4 | 17.7 | 0.00 | 0.00 | 0.00 | 22 | 1025.3 |
| 20260501214527 | 15 | 60 | 4.8 | 20.9 | 0.00 | 0.00 | 0.00 | 23 | 1025.4 |
| 20260501214021 | 14 | 112 | 6.4 | 24.1 | 0.00 | 0.00 | 0.00 | 23 | 1025.5 |
| 20260501213517 | 14 | 83 | 14.5 | 24.1 | 0.00 | 0.00 | 0.00 | 23 | 1025.5 |
| 20260501213018 | 15 | 72 | 9.7 | 19.3 | 0.00 | 0.00 | 0.00 | 24 | 1025.5 |
| 20260501212517 | 15 | 21 | 9.7 | 17.7 | 0.00 | 0.00 | 0.00 | 23 | 1025.6 |
| 20260501212016 | 14 | 134 | 1.6 | 22.5 | 0.00 | 0.00 | 0.00 | 21 | 1025.7 |
| 20260501211516 | 15 | 62 | 12.9 | 22.5 | 0.00 | 0.00 | 0.00 | 21 | 1025.9 |
| 20260501211015 | 14 | 122 | 0.0 | 22.5 | 0.00 | 0.00 | 0.00 | 21 | 1026.0 |
| 20260501210513 | 13 | 88 | 3.2 | 24.1 | 0.00 | 0.00 | 0.00 | 21 | 1026.1 |
| 20260501210016 | 14 | 45 | 8.0 | 16.1 | 0.00 | 0.00 | 0.00 | 21 | 1026.2 |
| 20260501205513 | 14 | 102 | 4.8 | 16.1 | 0.00 | 0.00 | 0.00 | 26 | 1026.2 |
| 20260501205012 | 13 | 359 | 1.6 | 20.9 | 0.00 | 0.00 | 0.00 | 21 | 1026.2 |
| 20260501204512 | 13 | 52 | 6.4 | 19.3 | 0.00 | 0.00 | 0.00 | 22 | 1026.2 |
| 20260501204011 | 13 | 94 | 9.7 | 17.7 | 0.00 | 0.00 | 0.00 | 22 | 1026.2 |
| 20260501203510 | 13 | 72 | 6.4 | 20.9 | 0.00 | 0.00 | 0.00 | 23 | 1026.2 |
| 20260501203021 | 13 | 13 | 9.7 | 20.9 | 0.00 | 0.00 | 0.00 | 23 | 1026.2 |
| 20260501202509 | 13 | 84 | 6.4 | 17.7 | 0.00 | 0.00 | 0.00 | 23 | 1026.2 |
| 20260501202011 | 13 | 73 | 4.8 | 24.1 | 0.00 | 0.00 | 0.00 | 23 | 1026.3 |
| 20260501201509 | 13 | 103 | 16.1 | 24.1 | 0.00 | 0.00 | 0.00 | 22 | 1026.3 |
| 20260501201010 | 13 | 122 | 6.4 | 16.1 | 0.00 | 0.00 | 0.00 | 21 | 1026.4 |
| 20260501200507 | 13 | 226 | 4.8 | 17.7 | 0.00 | 0.00 | 0.00 | 23 | 1026.4 |
| 20260501200007 | 13 | 72 | 12.9 | 17.7 | 0.00 | 0.00 | 0.00 | 22 | 1026.6 |
| 20260501195505 | 13 | 347 | 4.8 | 12.9 | 0.00 | 0.00 | 0.00 | 24 | 1026.5 |
| 20260501195005 | 13 | 310 | 4.8 | 16.1 | 0.00 | 0.00 | 0.00 | 24 | 1026.5 |
| 20260501194604 | 12 | 27 | 3.2 | 19.3 | 0.00 | 0.00 | 0.00 | 23 | 1026.6 |
| 20260501194005 | 12 | 56 | 11.3 | 19.3 | 0.00 | 0.00 | 0.00 | 22 | 1026.6 |
| 20260501193503 | 12 | 4 | 4.8 | 17.7 | 0.00 | 0.00 | 0.00 | 23 | 1026.5 |
| 20260501193004 | 12 | 71 | 3.2 | 19.3 | 0.00 | 0.00 | 0.00 | 21 | 1026.6 |
| 20260501192503 | 12 | 77 | 9.7 | 17.7 | 0.00 | 0.00 | 0.00 | 23 | 1026.5 |
| 20260501192003 | 12 | 247 | 4.8 | 17.7 | 0.00 | 0.00 | 0.00 | 26 | 1026.6 |
| 20260501191502 | 12 | 258 | 1.6 | 9.7 | 0.00 | 0.00 | 0.00 | 25 | 1026.6 |
| 20260501191001 | 12 | 312 | 3.2 | 17.7 | 0.00 | 0.00 | 0.00 | 22 | 1026.8 |
| 20260501190501 | 12 | 312 | 6.4 | 19.3 | 0.00 | 0.00 | 0.00 | 23 | 1026.8 |
| 20260501190100 | 12 | 25 | 8.0 | 19.3 | 0.00 | 0.00 | 0.00 | 25 | 1026.8 |
| 20260501185559 | 12 | 322 | 6.4 | 25.7 | 0.00 | 0.00 | 0.00 | 25 | 1026.9 |
| 20260501185058 | 12 | 18 | 14.5 | 25.7 | 0.00 | 0.00 | 0.00 | 24 | 1026.9 |
| 20260501184609 | 12 | 4 | 12.9 | 20.9 | 0.00 | 0.00 | 0.00 | 21 | 1027.0 |
| 20260501184056 | 12 | 73 | 4.8 | 17.7 | 0.00 | 0.00 | 0.00 | 24 | 1027.1 |
| 20260501183555 | 12 | 120 | 12.9 | 17.7 | 0.00 | 0.00 | 0.00 | 24 | 1027.2 |
| 20260501183053 | 12 | 79 | 4.8 | 12.9 | 0.00 | 0.00 | 0.00 | 24 | 1027.1 |
| 20260501182553 | 12 | 186 | 3.2 | 12.9 | 0.00 | 0.00 | 0.00 | 24 | 1027.2 |
| 20260501182051 | 12 | 160 | 1.6 | 16.1 | 0.00 | 0.00 | 0.00 | 24 | 1027.3 |
| 20260501181605 | 12 | 120 | 8.0 | 16.1 | 0.00 | 0.00 | 0.00 | 27 | 1027.3 |
| 20260501181050 | 11 | 122 | 6.4 | 17.7 | 0.00 | 0.00 | 0.00 | 27 | 1027.4 |
| 20260501180551 | 11 | 53 | 11.3 | 19.3 | 0.00 | 0.00 | 0.00 | 24 | 1027.5 |
| 20260501180058 | 12 | 76 | 12.9 | 19.3 | 0.00 | 0.00 | 0.00 | 22 | 1027.5 |
| 20260501175548 | 12 | 116 | 6.4 | 12.9 | 0.00 | 0.00 | 0.00 | 25 | 1027.5 |
| 20260501175047 | 11 | 70 | 1.6 | 16.1 | 0.00 | 0.00 | 0.00 | 26 | 1027.5 |
| 20260501174546 | 11 | 4 | 1.6 | 17.7 | 0.00 | 0.00 | 0.00 | 25 | 1027.6 |
| 20260501174045 | 11 | 29 | 9.7 | 22.5 | 0.00 | 0.00 | 0.00 | 28 | 1027.6 |
| 20260501173543 | 11 | 58 | 12.9 | 22.5 | 0.00 | 0.00 | 0.00 | 28 | 1027.6 |
| 20260501173043 | 11 | 130 | 8.0 | 20.9 | 0.00 | 0.00 | 0.00 | 25 | 1027.7 |
| 20260501172543 | 11 | 35 | 6.4 | 14.5 | 0.00 | 0.00 | 0.00 | 27 | 1027.7 |
| 20260501172043 | 11 | 278 | 8.0 | 14.5 | 0.00 | 0.00 | 0.00 | 26 | 1027.8 |
| 20260501171555 | 11 | 110 | 3.2 | 16.1 | 0.00 | 0.00 | 0.00 | 27 | 1027.7 |
| 20260501171040 | 11 | 41 | 3.2 | 16.1 | 0.00 | 0.00 | 0.00 | 27 | 1027.8 |
| 20260501170539 | 11 | 4 | 9.7 | 16.1 | 0.00 | 0.00 | 0.00 | 26 | 1027.9 |
| 20260501170040 | 11 | 8 | 1.6 | 9.7 | 0.00 | 0.00 | 0.00 | 28 | 1028.0 |
| 20260501165538 | 10 | 155 | 1.6 | 19.3 | 0.00 | 0.00 | 0.00 | 27 | 1028.0 |
| 20260501165037 | 10 | 332 | 4.8 | 20.9 | 0.00 | 0.00 | 0.00 | 28 | 1028.0 |
| 20260501164535 | 10 | 45 | 8.0 | 19.3 | 0.00 | 0.00 | 0.00 | 28 | 1028.0 |
| 20260501164035 | 10 | 81 | 11.3 | 20.9 | 0.00 | 0.00 | 0.00 | 29 | 1027.9 |
| 20260501163534 | 10 | 80 | 8.0 | 19.3 | 0.00 | 0.00 | 0.00 | 28 | 1027.9 |
| 20260501163032 | 10 | 32 | 8.0 | 19.3 | 0.00 | 0.00 | 0.00 | 29 | 1028.0 |
| 20260501162532 | 10 | 344 | 1.6 | 19.3 | 0.00 | 0.00 | 0.00 | 29 | 1028.0 |
| 20260501162030 | 10 | 14 | 4.8 | 22.5 | 0.00 | 0.00 | 0.00 | 28 | 1027.9 |
| 20260501161530 | 10 | 45 | 11.3 | 22.5 | 0.00 | 0.00 | 0.00 | 29 | 1028.0 |
| 20260501161027 | 10 | 14 | 16.1 | 22.5 | 0.00 | 0.00 | 0.00 | 31 | 1027.9 |
| 20260501160527 | 10 | 54 | 0.0 | 14.5 | 0.00 | 0.00 | 0.00 | 28 | 1027.9 |
| 20260501160032 | 10 | 41 | 6.4 | 20.9 | 0.00 | 0.00 | 0.00 | 29 | 1028.0 |
| 20260501155524 | 10 | 26 | 11.3 | 20.9 | 0.00 | 0.00 | 0.00 | 30 | 1027.9 |
| 20260501155022 | 10 | 4 | 9.7 | 16.1 | 0.00 | 0.00 | 0.00 | 29 | 1027.9 |
| 20260501154524 | 10 | 326 | 4.8 | 14.5 | 0.00 | 0.00 | 0.00 | 30 | 1027.9 |
| 20260501154021 | 10 | 345 | 6.4 | 12.9 | 0.00 | 0.00 | 0.00 | 29 | 1027.8 |
| 20260501153518 | 10 | 345 | 0.0 | 14.5 | 0.00 | 0.00 | 0.00 | 30 | 1027.9 |
| 20260501153018 | 10 | 341 | 4.8 | 20.9 | 0.00 | 0.00 | 0.00 | 29 | 1027.9 |
| 20260501152515 | 10 | 14 | 8.0 | 17.7 | 0.00 | 0.00 | 0.00 | 29 | 1027.9 |
| 20260501152017 | 10 | 37 | 11.3 | 17.7 | 0.00 | 0.00 | 0.00 | 31 | 1027.9 |
| 20260501151516 | 9 | 72 | 4.8 | 14.5 | 0.00 | 0.00 | 0.00 | 33 | 1027.9 |
| 20260501151011 | 9 | 40 | 6.4 | 14.5 | 0.00 | 0.00 | 0.00 | 32 | 1028.1 |
| 20260501150510 | 9 | 21 | 4.8 | 20.9 | 0.00 | 0.00 | 0.00 | 33 | 1028.1 |
| 20260501150008 | 9 | 13 | 11.3 | 20.9 | 0.00 | 0.00 | 0.00 | 33 | 1028.1 |
| 20260501145509 | 9 | 16 | 9.7 | 16.1 | 0.00 | 0.10 | 0.00 | 33 | 1028.1 |
| 20260501145006 | 9 | 4 | 8.0 | 14.5 | 0.00 | 0.10 | 0.00 | 33 | 1028.1 |
| 20260501144511 | 10 | 36 | 1.6 | 9.7 | 0.00 | 0.10 | 0.00 | 33 | 1028.1 |
| 20260501144002 | 10 | 66 | 3.2 | 8.0 | 0.00 | 0.10 | 0.00 | 34 | 1028.1 |
| 20260501143600 | 9 | 320 | 0.0 | 4.8 | 0.00 | 0.10 | 0.00 | 34 | 1028.2 |
| 20260501143502 | 9 | 20 | 0.0 | 4.8 | 0.00 | 0.10 | 0.00 | 34 | 1028.2 |
| 20260501143059 | 8 | 115 | 1.6 | 4.8 | 0.00 | 0.10 | 0.00 | 34 | 1028.1 |